createdAt,value
2023-03-02T00:02:47.102Z,69.40
2023-03-02T00:06:09.243Z,67.86
2023-03-02T00:09:33.300Z,68.21
2023-03-02T00:12:57.686Z,68.77
2023-03-02T00:16:19.418Z,68.20
2023-03-02T00:19:42.567Z,69.38
2023-03-02T00:23:04.439Z,69.59
2023-03-02T00:26:26.245Z,67.86
2023-03-02T00:29:48.054Z,70.01
2023-03-02T00:33:09.964Z,68.86
2023-03-02T00:36:31.577Z,69.80
2023-03-02T00:39:54.016Z,69.07
2023-03-02T00:43:19.004Z,68.94
2023-03-02T00:46:40.677Z,70.51
2023-03-02T00:50:03.188Z,70.48
2023-03-02T00:53:24.806Z,69.64
2023-03-02T00:56:46.454Z,69.43
2023-03-02T01:00:11.328Z,69.91
2023-03-02T01:03:33.244Z,70.99
2023-03-02T01:06:54.996Z,71.76
2023-03-02T01:10:16.858Z,71.27
2023-03-02T01:13:38.565Z,70.09
2023-03-02T01:17:00.430Z,70.98
2023-03-02T01:20:22.053Z,70.60
2023-03-02T01:23:43.881Z,71.27
2023-03-02T01:27:05.603Z,71.12
2023-03-02T01:30:27.224Z,70.64
2023-03-02T01:33:48.861Z,71.60
2023-03-02T01:37:10.483Z,72.89
2023-03-02T01:40:34.901Z,72.91
2023-03-02T01:43:58.848Z,72.21
2023-03-02T01:47:23.611Z,72.12
2023-03-02T01:50:45.389Z,72.07
2023-03-02T01:54:17.215Z,72.34
2023-03-02T01:57:44.972Z,73.19
2023-03-02T02:01:15.495Z,74.49
2023-03-02T02:04:40.082Z,75.26
2023-03-02T02:08:02.202Z,75.52
2023-03-02T02:11:24.665Z,74.89
2023-03-02T02:14:48.162Z,75.00
2023-03-02T02:18:09.859Z,74.16
2023-03-02T02:21:36.205Z,74.50
2023-03-02T02:25:03.550Z,74.77
2023-03-02T02:28:25.202Z,72.87
2023-03-02T02:32:12.469Z,74.72
2023-03-02T02:35:38.570Z,74.53
2023-03-02T02:39:04.672Z,74.57
2023-03-02T02:42:39.440Z,74.11
2023-03-02T02:46:06.335Z,74.73
2023-03-02T02:49:33.445Z,75.11
2023-03-02T02:53:02.766Z,75.09
2023-03-02T02:56:43.093Z,74.68
2023-03-02T03:00:06.716Z,73.21
2023-03-02T03:03:36.188Z,73.83
2023-03-02T03:07:01.015Z,73.81
2023-03-02T03:10:35.062Z,73.83
2023-03-02T03:14:14.264Z,74.47
2023-03-02T03:17:40.948Z,73.66
2023-03-02T03:21:02.591Z,73.00
2023-03-02T03:24:25.664Z,72.29
2023-03-02T03:27:47.287Z,72.81
2023-03-02T03:31:08.983Z,72.97
2023-03-02T03:34:34.471Z,73.18
2023-03-02T03:37:56.061Z,72.98
2023-03-02T03:41:20.127Z,72.12
2023-03-02T03:44:42.111Z,72.31
2023-03-02T03:48:04.006Z,73.28
2023-03-02T03:51:26.075Z,73.33
2023-03-02T03:54:52.399Z,73.03
2023-03-02T03:58:16.201Z,73.24
2023-03-02T04:01:44.913Z,73.60
2023-03-02T04:05:12.116Z,72.81
2023-03-02T04:08:33.694Z,71.83
2023-03-02T04:11:59.964Z,71.09
2023-03-02T04:15:24.402Z,71.15
2023-03-02T04:18:46.071Z,72.09
2023-03-02T04:22:12.887Z,71.88
2023-03-02T04:25:34.543Z,71.74
2023-03-02T04:28:56.147Z,72.27
2023-03-02T04:32:23.016Z,72.91
2023-03-02T04:35:44.745Z,73.01
2023-03-02T04:39:06.799Z,72.45
2023-03-02T04:42:30.853Z,72.28
2023-03-02T04:45:54.262Z,72.16
2023-03-02T04:49:17.009Z,71.21
2023-03-02T04:52:41.030Z,71.45
2023-03-02T04:56:02.684Z,71.96
2023-03-02T04:59:27.010Z,73.06
2023-03-02T05:02:54.327Z,74.03
2023-03-02T05:06:16.162Z,74.32
2023-03-02T05:09:40.235Z,74.60
2023-03-02T05:13:05.902Z,73.28
2023-03-02T05:16:29.649Z,73.27
2023-03-02T05:19:51.271Z,72.85
2023-03-02T05:23:25.195Z,73.36
2023-03-02T05:26:47.392Z,72.63
2023-03-02T05:30:11.972Z,72.47
2023-03-02T05:33:34.615Z,72.34
2023-03-02T05:37:00.769Z,71.69
2023-03-02T05:40:22.510Z,72.26
2023-03-02T05:43:44.640Z,73.12
2023-03-02T05:47:09.011Z,74.28
2023-03-02T05:50:31.584Z,73.47
2023-03-02T05:53:55.425Z,72.63
2023-03-02T05:57:19.384Z,71.41
2023-03-02T06:00:41.720Z,70.91
2023-03-02T06:04:06.012Z,70.63
2023-03-02T06:07:32.474Z,70.15
2023-03-02T06:10:59.423Z,70.91
2023-03-02T06:14:21.093Z,71.10
2023-03-02T06:17:42.969Z,71.85
2023-03-02T06:21:05.042Z,72.05
2023-03-02T06:24:28.834Z,71.30
2023-03-02T06:27:51.781Z,71.44
2023-03-02T06:31:15.727Z,70.42
2023-03-02T06:34:37.368Z,69.79
2023-03-02T06:37:59.049Z,69.39
2023-03-02T06:41:24.892Z,69.29
2023-03-02T06:44:46.558Z,68.70
2023-03-02T06:48:08.523Z,67.76
2023-03-02T06:51:30.505Z,67.41
2023-03-02T06:54:52.123Z,66.64
2023-03-02T06:58:13.843Z,65.68
2023-03-02T07:01:36.404Z,63.09
2023-03-02T07:05:00.347Z,60.84
2023-03-02T07:08:22.024Z,58.28
2023-03-02T07:11:48.374Z,56.77
2023-03-02T07:15:12.329Z,53.42
2023-03-02T07:18:33.967Z,53.10
2023-03-02T07:21:55.614Z,52.57
2023-03-02T07:25:19.868Z,50.48
2023-03-02T07:28:43.469Z,48.60
2023-03-02T07:32:06.854Z,47.81
2023-03-02T07:35:28.662Z,46.73
2023-03-02T07:38:50.367Z,46.21
2023-03-02T07:42:15.212Z,45.98
2023-03-02T07:45:39.830Z,45.41
2023-03-02T07:49:02.065Z,44.51
2023-03-02T07:52:23.777Z,43.12
2023-03-02T07:55:45.359Z,42.31
2023-03-02T07:59:06.997Z,41.94
2023-03-02T08:02:28.653Z,39.76
2023-03-02T08:05:54.992Z,39.92
2023-03-02T08:09:17.298Z,37.16
2023-03-02T08:12:38.896Z,39.13
2023-03-02T08:16:01.864Z,39.37
2023-03-02T08:19:23.678Z,38.77
2023-03-02T08:22:50.037Z,37.82
2023-03-02T08:26:14.313Z,35.41
2023-03-02T08:29:37.387Z,36.27
2023-03-02T08:33:00.137Z,38.35
2023-03-02T08:36:23.751Z,38.21
2023-03-02T08:39:48.544Z,38.07
2023-03-02T08:43:10.239Z,37.69
2023-03-02T08:46:31.824Z,37.87
2023-03-02T08:49:58.294Z,36.23
2023-03-02T08:53:24.733Z,37.19
2023-03-02T08:56:46.488Z,36.24
2023-03-02T09:00:12.039Z,35.00
2023-03-02T09:03:33.605Z,34.32
2023-03-02T09:06:55.180Z,42.22
2023-03-02T09:10:16.910Z,44.04
2023-03-02T09:13:41.754Z,39.01
2023-03-02T09:17:06.518Z,36.39
2023-03-02T09:20:28.094Z,37.09
2023-03-02T09:23:53.805Z,37.66
2023-03-02T09:27:15.428Z,34.90
2023-03-02T09:30:39.779Z,38.22
2023-03-02T09:34:03.802Z,32.71
2023-03-02T09:37:27.591Z,36.33
2023-03-02T09:41:09.804Z,34.33
2023-03-02T09:45:05.433Z,36.04
2023-03-02T09:48:54.739Z,34.62
2023-03-02T09:52:30.147Z,35.58
2023-03-02T09:55:56.097Z,34.52
2023-03-02T09:59:17.644Z,39.95
2023-03-02T10:03:02.477Z,31.51
2023-03-02T10:06:27.698Z,31.59
2023-03-02T10:09:51.773Z,32.78
2023-03-02T10:13:16.105Z,32.57
2023-03-02T10:16:46.428Z,33.03
2023-03-02T10:20:20.290Z,32.10
2023-03-02T10:24:19.061Z,32.94
2023-03-02T10:27:43.539Z,32.50
2023-03-02T10:31:10.402Z,32.19
2023-03-02T10:34:33.597Z,33.30
2023-03-02T10:38:12.442Z,32.53
2023-03-02T10:41:43.398Z,31.65
2023-03-02T10:45:23.360Z,31.43
2023-03-02T10:48:49.240Z,32.17
2023-03-02T10:52:24.607Z,31.68
2023-03-02T10:55:52.642Z,32.75
2023-03-02T10:59:27.074Z,31.52
2023-03-02T11:03:00.713Z,32.24
2023-03-02T11:06:27.343Z,32.10
2023-03-02T11:10:17.325Z,31.03
2023-03-02T11:13:43.672Z,32.50
2023-03-02T11:17:31.020Z,32.55
2023-03-02T11:20:56.966Z,33.34
2023-03-02T11:24:33.362Z,34.05
2023-03-02T11:28:03.720Z,33.64
2023-03-02T11:31:37.001Z,33.43
2023-03-02T11:35:02.844Z,34.59
2023-03-02T11:38:30.209Z,34.72
2023-03-02T11:41:56.780Z,34.47
2023-03-02T11:45:24.471Z,34.42
2023-03-02T11:48:50.522Z,34.12
2023-03-02T11:52:24.843Z,33.97
2023-03-02T11:55:50.747Z,38.65
2023-03-02T11:59:23.928Z,38.17
2023-03-02T12:02:45.783Z,38.82
2023-03-02T12:06:26.833Z,33.78
2023-03-02T12:10:06.995Z,34.94
2023-03-02T12:13:39.633Z,36.53
2023-03-02T12:17:22.582Z,32.93
2023-03-02T12:20:46.438Z,33.45
2023-03-02T12:24:25.029Z,32.58
2023-03-02T12:27:49.213Z,33.38
2023-03-02T12:31:13.549Z,33.99
2023-03-02T12:34:41.763Z,34.57
2023-03-02T12:38:08.256Z,34.97
2023-03-02T12:41:44.857Z,34.31
2023-03-02T12:45:31.915Z,34.39
2023-03-02T12:49:14.821Z,38.94
2023-03-02T12:52:37.329Z,37.86
2023-03-02T12:55:59.175Z,35.02
2023-03-02T12:59:27.191Z,36.95
2023-03-02T13:02:54.429Z,36.99
2023-03-02T13:06:20.497Z,39.66
2023-03-02T13:09:47.720Z,38.58
2023-03-02T13:13:27.128Z,37.22
2023-03-02T13:16:57.835Z,38.85
2023-03-02T13:20:22.073Z,42.48
2023-03-02T13:23:51.813Z,37.13
2023-03-02T13:27:17.734Z,38.18
2023-03-02T13:30:47.684Z,39.36
2023-03-02T13:34:23.434Z,40.02
2023-03-02T13:37:45.160Z,40.29
2023-03-02T13:41:10.869Z,41.16
2023-03-02T13:44:35.363Z,41.05
2023-03-02T13:47:59.900Z,41.89
2023-03-02T13:51:24.068Z,41.35
2023-03-02T13:54:47.257Z,42.42
2023-03-02T13:58:16.341Z,45.28
2023-03-02T14:01:41.462Z,44.75
2023-03-02T14:05:06.954Z,45.84
2023-03-02T14:08:30.755Z,45.67
2023-03-02T14:11:55.045Z,45.41
2023-03-02T14:15:17.048Z,43.44
2023-03-02T14:18:40.936Z,45.38
2023-03-02T14:22:02.540Z,42.95
2023-03-02T14:25:26.672Z,40.66
2023-03-02T14:29:04.588Z,40.55
2023-03-02T14:32:27.059Z,41.33
2023-03-02T14:35:50.937Z,41.58
2023-03-02T14:39:20.572Z,42.57
2023-03-02T14:42:42.168Z,42.48
2023-03-02T14:46:06.278Z,42.90
2023-03-02T14:49:28.765Z,43.19
2023-03-02T14:52:57.602Z,42.67
2023-03-02T14:56:22.989Z,43.36
2023-03-02T14:59:44.807Z,51.04
2023-03-02T15:03:06.534Z,47.31
2023-03-02T15:06:31.202Z,47.69
2023-03-02T15:09:52.948Z,46.08
2023-03-02T15:13:19.263Z,46.65
2023-03-02T15:16:42.877Z,46.32
2023-03-02T15:20:08.611Z,44.77
2023-03-02T15:23:32.979Z,46.20
2023-03-02T15:26:54.618Z,41.19
2023-03-02T15:30:16.685Z,42.02
2023-03-02T15:33:41.353Z,42.07
2023-03-02T15:37:05.728Z,43.11
2023-03-02T15:40:27.340Z,43.31
2023-03-02T15:43:56.031Z,43.76
2023-03-02T15:47:17.910Z,44.52
2023-03-02T15:50:39.558Z,46.15
2023-03-02T15:54:10.880Z,43.54
2023-03-02T15:57:37.437Z,42.92
2023-03-02T16:01:01.799Z,44.34
2023-03-02T16:04:23.407Z,44.11
2023-03-02T16:07:45.389Z,44.75
2023-03-02T16:11:11.530Z,45.30
2023-03-02T16:14:36.543Z,46.38
2023-03-02T16:17:58.121Z,46.67
2023-03-02T16:21:20.369Z,46.77
2023-03-02T16:24:42.191Z,47.16
2023-03-02T16:28:04.241Z,47.70
2023-03-02T16:31:28.074Z,48.31
2023-03-02T16:34:49.726Z,48.58
2023-03-02T16:38:13.602Z,48.93
2023-03-02T16:41:38.623Z,48.92
2023-03-02T16:45:00.208Z,49.11
2023-03-02T16:48:22.551Z,49.42
2023-03-02T16:51:46.335Z,49.23
2023-03-02T16:55:15.189Z,49.71
2023-03-02T16:58:39.790Z,49.66
2023-03-02T17:02:01.446Z,50.12
2023-03-02T17:05:23.822Z,50.09
2023-03-02T17:08:45.744Z,51.65
2023-03-02T17:12:08.025Z,51.71
2023-03-02T17:15:32.119Z,52.87
2023-03-02T17:18:56.774Z,53.05
2023-03-02T17:22:18.489Z,60.80
2023-03-02T17:25:42.452Z,58.72
2023-03-02T17:29:04.130Z,59.45
2023-03-02T17:32:28.288Z,58.71
2023-03-02T17:35:50.227Z,55.75
2023-03-02T17:39:11.949Z,56.26
2023-03-02T17:42:33.638Z,52.20
2023-03-02T17:45:57.342Z,51.24
2023-03-02T17:49:19.117Z,52.61
2023-03-02T17:52:41.068Z,52.85
2023-03-02T17:56:07.204Z,53.52
2023-03-02T17:59:29.451Z,54.13
2023-03-02T18:02:52.281Z,54.64
2023-03-02T18:06:18.955Z,55.08
2023-03-02T18:09:40.899Z,54.99
2023-03-02T18:13:02.465Z,54.66
2023-03-02T18:16:27.964Z,55.64
2023-03-02T18:19:49.624Z,55.28
2023-03-02T18:23:12.812Z,55.21
2023-03-02T18:26:36.592Z,55.67
2023-03-02T18:30:00.709Z,55.92
2023-03-02T18:33:24.759Z,55.92
2023-03-02T18:36:49.209Z,55.86
2023-03-02T18:40:12.213Z,56.23
2023-03-02T18:43:37.643Z,56.40
2023-03-02T18:47:00.766Z,57.08
2023-03-02T18:50:23.479Z,56.78
2023-03-02T18:53:48.288Z,57.26
2023-03-02T18:57:13.014Z,57.51
2023-03-02T19:00:35.102Z,57.42
2023-03-02T19:03:57.683Z,58.46
2023-03-02T19:07:21.561Z,58.93
2023-03-02T19:10:43.538Z,59.40
2023-03-02T19:14:05.197Z,59.40
2023-03-02T19:17:26.794Z,60.11
2023-03-02T19:20:54.306Z,61.00
2023-03-02T19:24:15.945Z,61.05
2023-03-02T19:27:37.791Z,68.46
2023-03-02T19:31:09.464Z,68.29
2023-03-02T19:34:33.145Z,66.38
2023-03-02T19:37:55.006Z,65.23
2023-03-02T19:41:19.425Z,64.27
2023-03-02T19:44:41.059Z,65.49
2023-03-02T19:48:03.614Z,58.83
2023-03-02T19:51:25.743Z,58.94
2023-03-02T19:54:47.330Z,59.49
2023-03-02T19:58:16.900Z,60.45
2023-03-02T20:01:39.520Z,61.54
2023-03-02T20:05:01.589Z,61.46
2023-03-02T20:08:25.705Z,61.67
2023-03-02T20:11:48.250Z,62.07
2023-03-02T20:15:10.619Z,62.84
2023-03-02T20:18:32.427Z,62.53
2023-03-02T20:21:54.053Z,64.36
2023-03-02T20:25:19.809Z,64.06
2023-03-02T20:28:41.433Z,63.76
2023-03-02T20:32:09.174Z,64.43
2023-03-02T20:35:37.763Z,63.71
2023-03-02T20:39:07.744Z,64.59
2023-03-02T20:42:31.238Z,64.26
2023-03-02T20:45:53.443Z,64.24
2023-03-02T20:49:16.306Z,64.22
2023-03-02T20:52:41.405Z,63.95
2023-03-02T20:56:03.276Z,64.54
2023-03-02T20:59:25.903Z,73.16
2023-03-02T21:02:50.913Z,71.22
2023-03-02T21:06:15.305Z,71.42
2023-03-02T21:09:37.308Z,69.62
2023-03-02T21:12:59.380Z,69.68
2023-03-02T21:16:35.682Z,68.63
2023-03-02T21:20:00.436Z,69.71
2023-03-02T21:23:22.103Z,62.88
2023-03-02T21:26:49.590Z,63.00
2023-03-02T21:30:23.582Z,63.82
2023-03-02T21:33:45.895Z,65.18
2023-03-02T21:37:07.587Z,65.57
2023-03-02T21:40:33.211Z,65.95
2023-03-02T21:43:57.821Z,65.23
2023-03-02T21:47:19.504Z,64.43
2023-03-02T21:50:46.149Z,65.08
2023-03-02T21:54:12.496Z,64.70
2023-03-02T21:57:34.475Z,65.05
2023-03-02T22:00:56.266Z,65.58
2023-03-02T22:04:17.936Z,66.03
2023-03-02T22:07:39.557Z,65.77
2023-03-02T22:11:01.355Z,66.09
2023-03-02T22:14:23.251Z,66.44
2023-03-02T22:17:45.099Z,66.51
2023-03-02T22:21:30.295Z,66.16
2023-03-02T22:24:53.697Z,66.89
2023-03-02T22:28:21.524Z,67.30
2023-03-02T22:31:47.235Z,66.62
2023-03-02T22:35:27.125Z,66.18
2023-03-02T22:38:49.458Z,66.71
2023-03-02T22:42:17.165Z,67.05
2023-03-02T22:45:40.599Z,67.39
2023-03-02T22:49:02.329Z,66.96
2023-03-02T22:52:27.058Z,68.26
2023-03-02T22:55:51.125Z,67.89
2023-03-02T22:59:27.643Z,67.86
2023-03-02T23:02:56.808Z,67.14
2023-03-02T23:06:28.930Z,68.58
2023-03-02T23:09:50.602Z,68.89
2023-03-02T23:13:15.220Z,69.67
2023-03-02T23:16:41.432Z,68.98
2023-03-02T23:20:07.794Z,68.56
2023-03-02T23:23:29.434Z,67.89
2023-03-02T23:26:53.522Z,67.54
2023-03-02T23:30:18.289Z,69.55
2023-03-02T23:33:42.569Z,69.21
2023-03-02T23:37:04.243Z,69.89
2023-03-02T23:40:31.273Z,69.54
2023-03-02T23:43:52.862Z,69.06
2023-03-02T23:47:14.501Z,69.40
2023-03-02T23:50:38.370Z,69.33
2023-03-02T23:54:00.119Z,68.29
2023-03-02T23:57:21.749Z,68.62
